createdAt,value
2019-05-14T00:01:57.921Z,7.84
2019-05-14T00:04:33.410Z,7.87
2019-05-14T00:07:07.152Z,7.80
2019-05-14T00:09:44.038Z,7.88
2019-05-14T00:12:17.378Z,7.91
2019-05-14T00:14:55.950Z,7.86
2019-05-14T00:17:34.636Z,7.80
2019-05-14T00:20:10.201Z,7.73
2019-05-14T00:22:45.928Z,7.80
2019-05-14T00:25:22.049Z,7.68
2019-05-14T00:27:56.958Z,7.57
2019-05-14T00:30:31.642Z,7.55
2019-05-14T00:33:06.376Z,7.48
2019-05-14T00:35:42.959Z,7.40
2019-05-14T00:38:17.101Z,7.45
2019-05-14T00:40:51.382Z,7.47
2019-05-14T00:43:32.490Z,7.43
2019-05-14T00:46:11.810Z,7.38
2019-05-14T00:48:51.254Z,7.33
2019-05-14T00:51:26.467Z,7.28
2019-05-14T00:54:03.548Z,7.31
2019-05-14T00:56:37.487Z,7.24
2019-05-14T00:59:12.268Z,7.13
2019-05-14T01:01:58.135Z,7.03
2019-05-14T01:04:42.795Z,7.03
2019-05-14T01:07:21.207Z,6.88
2019-05-14T01:10:11.578Z,6.83
2019-05-14T01:12:45.798Z,6.94
2019-05-14T01:15:26.797Z,6.89
2019-05-14T01:18:02.206Z,6.89
2019-05-14T01:20:36.067Z,6.92
2019-05-14T01:23:12.155Z,6.91
2019-05-14T01:25:46.132Z,6.79
2019-05-14T01:28:21.698Z,6.78
2019-05-14T01:30:57.457Z,6.77
2019-05-14T01:33:31.807Z,6.74
2019-05-14T01:36:06.465Z,6.67
2019-05-14T01:38:41.708Z,6.64
2019-05-14T01:41:15.304Z,6.53
2019-05-14T01:43:47.847Z,6.47
2019-05-14T01:46:21.265Z,6.47
2019-05-14T01:48:53.918Z,6.40
2019-05-14T01:51:26.521Z,6.35
2019-05-14T01:54:01.467Z,6.33
2019-05-14T01:56:34.162Z,6.28
2019-05-14T01:59:08.292Z,6.28
2019-05-14T02:01:41.639Z,6.26
2019-05-14T02:04:14.351Z,6.23
2019-05-14T02:06:46.944Z,6.13
2019-05-14T02:09:21.551Z,6.03
2019-05-14T02:11:54.553Z,6.01
2019-05-14T02:14:27.376Z,5.96
2019-05-14T02:17:01.904Z,5.89
2019-05-14T02:19:34.865Z,5.90
2019-05-14T02:22:07.508Z,5.89
2019-05-14T02:24:41.802Z,5.87
2019-05-14T02:27:14.750Z,5.83
2019-05-14T02:29:47.290Z,5.87
2019-05-14T02:32:20.174Z,5.87
2019-05-14T02:34:52.836Z,5.84
2019-05-14T02:37:25.488Z,5.84
2019-05-14T02:40:00.006Z,5.79
2019-05-14T02:42:33.528Z,5.79
2019-05-14T02:45:09.107Z,5.74
2019-05-14T02:47:41.780Z,5.67
2019-05-14T02:50:14.703Z,5.68
2019-05-14T02:52:49.699Z,5.63
2019-05-14T02:55:22.578Z,5.59
2019-05-14T02:57:59.546Z,5.54
2019-05-14T03:00:34.517Z,5.41
2019-05-14T03:03:09.848Z,5.45
2019-05-14T03:05:42.968Z,5.34
2019-05-14T03:08:15.848Z,5.39
2019-05-14T03:10:50.423Z,5.32
2019-05-14T03:13:23.301Z,5.22
2019-05-14T03:15:59.012Z,5.13
2019-05-14T03:18:32.554Z,5.18
2019-05-14T03:21:05.287Z,5.25
2019-05-14T03:23:39.194Z,5.10
2019-05-14T03:26:12.149Z,4.98
2019-05-14T03:28:49.632Z,4.87
2019-05-14T03:31:23.509Z,4.85
2019-05-14T03:34:02.510Z,4.75
2019-05-14T03:36:42.298Z,4.67
2019-05-14T03:39:18.958Z,4.63
2019-05-14T03:41:54.426Z,4.58
2019-05-14T03:44:29.129Z,4.57
2019-05-14T03:47:05.142Z,4.52
2019-05-14T03:49:39.690Z,4.42
2019-05-14T03:52:13.499Z,4.46
2019-05-14T03:54:49.420Z,4.46
2019-05-14T03:57:24.489Z,4.51
2019-05-14T03:59:59.665Z,4.37
2019-05-14T04:02:34.633Z,4.29
2019-05-14T04:05:09.520Z,4.23
2019-05-14T04:07:45.491Z,4.25
2019-05-14T04:10:19.542Z,4.26
2019-05-14T04:12:54.072Z,4.26
2019-05-14T04:15:30.444Z,4.32
2019-05-14T04:18:04.800Z,4.29
2019-05-14T04:20:43.644Z,4.22
2019-05-14T04:23:19.833Z,4.17
2019-05-14T04:25:54.747Z,4.13
2019-05-14T04:28:30.086Z,4.09
2019-05-14T04:31:05.495Z,4.02
2019-05-14T04:33:45.488Z,4.04
2019-05-14T04:36:19.513Z,4.09
2019-05-14T04:38:55.177Z,4.26
2019-05-14T04:41:30.614Z,4.38
2019-05-14T04:44:03.417Z,4.46
2019-05-14T04:46:39.458Z,4.43
2019-05-14T04:49:15.154Z,4.39
2019-05-14T04:51:50.374Z,4.39
2019-05-14T04:54:23.609Z,4.53
2019-05-14T04:57:00.056Z,4.61
2019-05-14T04:59:33.948Z,4.63
2019-05-14T05:02:09.596Z,4.69
2019-05-14T05:04:43.422Z,4.79
2019-05-14T05:08:09.048Z,4.87
2019-05-14T05:10:49.496Z,4.94
2019-05-14T05:13:22.389Z,4.98
2019-05-14T05:16:01.334Z,5.02
2019-05-14T05:18:34.886Z,5.13
2019-05-14T05:21:08.765Z,5.26
2019-05-14T05:23:42.414Z,5.37
2019-05-14T05:26:18.274Z,5.40
2019-05-14T05:29:05.594Z,5.41
2019-05-14T05:31:59.374Z,5.44
2019-05-14T05:34:33.134Z,5.48
2019-05-14T05:37:08.406Z,5.52
2019-05-14T05:39:41.383Z,5.56
2019-05-14T05:42:18.591Z,5.62
2019-05-14T05:44:54.966Z,5.73
2019-05-14T05:47:29.119Z,5.85
2019-05-14T05:50:02.908Z,6.03
2019-05-14T05:52:41.170Z,6.24
2019-05-14T05:55:15.224Z,6.53
2019-05-14T05:57:49.428Z,6.83
2019-05-14T06:00:40.066Z,7.02
2019-05-14T06:03:14.863Z,7.06
2019-05-14T06:05:51.798Z,7.11
2019-05-14T06:08:28.034Z,7.17
2019-05-14T06:11:00.773Z,7.27
2019-05-14T06:13:34.536Z,7.37
2019-05-14T06:16:09.529Z,7.39
2019-05-14T06:18:45.328Z,7.44
2019-05-14T06:21:22.957Z,7.53
2019-05-14T06:23:58.290Z,7.63
2019-05-14T06:26:33.071Z,7.73
2019-05-14T06:29:08.464Z,7.77
2019-05-14T06:31:41.663Z,7.75
2019-05-14T06:34:14.313Z,7.84
2019-05-14T06:36:48.527Z,7.93
2019-05-14T06:39:28.137Z,7.94
2019-05-14T06:42:00.896Z,8.05
2019-05-14T06:44:35.765Z,8.10
2019-05-14T06:47:09.460Z,8.18
2019-05-14T06:49:43.690Z,8.26
2019-05-14T06:52:18.794Z,8.31
2019-05-14T06:54:52.693Z,8.34
2019-05-14T06:57:28.389Z,8.41
2019-05-14T07:00:04.667Z,8.59
2019-05-14T07:02:43.226Z,8.63
2019-05-14T07:05:19.868Z,8.71
2019-05-14T07:07:54.127Z,8.80
2019-05-14T07:10:28.708Z,8.87
2019-05-14T07:13:01.443Z,8.94
2019-05-14T07:15:39.060Z,9.01
2019-05-14T07:18:12.237Z,9.17
2019-05-14T07:20:44.798Z,9.31
2019-05-14T07:23:19.514Z,9.50
2019-05-14T07:25:52.732Z,9.75
2019-05-14T07:28:28.961Z,9.82
2019-05-14T07:31:01.987Z,10.30
2019-05-14T07:33:39.020Z,11.20
2019-05-14T07:36:12.074Z,12.27
2019-05-14T07:38:48.638Z,12.91
2019-05-14T07:41:22.138Z,13.49
2019-05-14T07:43:54.854Z,13.83
2019-05-14T07:46:28.493Z,14.11
2019-05-14T07:49:08.130Z,14.19
2019-05-14T07:51:42.603Z,14.38
2019-05-14T07:54:15.228Z,14.53
2019-05-14T07:56:53.089Z,14.39
2019-05-14T07:59:28.760Z,14.21
2019-05-14T08:02:04.012Z,14.16
2019-05-14T08:04:38.080Z,14.68
2019-05-14T08:07:11.952Z,14.72
2019-05-14T08:09:45.174Z,15.06
2019-05-14T08:12:21.175Z,15.24
2019-05-14T08:15:10.920Z,15.53
2019-05-14T08:17:48.192Z,15.51
2019-05-14T08:20:22.056Z,15.58
2019-05-14T08:22:54.603Z,15.56
2019-05-14T08:25:29.453Z,15.62
2019-05-14T08:28:08.153Z,15.94
2019-05-14T08:30:55.827Z,16.19
2019-05-14T08:33:30.549Z,16.23
2019-05-14T08:36:08.683Z,16.50
2019-05-14T08:38:45.449Z,16.55
2019-05-14T08:41:29.228Z,16.65
2019-05-14T08:44:08.310Z,16.58
2019-05-14T08:46:41.304Z,16.66
2019-05-14T08:49:39.068Z,16.50
2019-05-14T08:52:25.389Z,16.21
2019-05-14T08:55:10.073Z,16.25
2019-05-14T08:57:59.219Z,16.77
2019-05-14T09:00:33.195Z,17.04
2019-05-14T09:03:08.528Z,16.92
2019-05-14T09:05:43.540Z,16.79
2019-05-14T09:08:39.374Z,16.74
2019-05-14T09:11:24.920Z,17.13
2019-05-14T09:14:02.842Z,17.97
2019-05-14T09:16:46.266Z,18.40
2019-05-14T09:19:28.723Z,18.25
2019-05-14T09:22:03.475Z,17.87
2019-05-14T09:24:38.670Z,17.20
2019-05-14T09:27:19.258Z,16.93
2019-05-14T09:29:58.961Z,16.88
2019-05-14T09:32:38.522Z,17.47
2019-05-14T09:35:13.733Z,18.06
2019-05-14T09:37:51.284Z,18.89
2019-05-14T09:40:33.330Z,19.23
2019-05-14T09:43:17.914Z,18.93
2019-05-14T09:46:04.962Z,18.97
2019-05-14T09:48:41.268Z,18.72
2019-05-14T09:51:14.623Z,18.10
2019-05-14T09:53:48.873Z,17.32
2019-05-14T09:56:30.425Z,16.97
2019-05-14T09:59:09.749Z,17.13
2019-05-14T10:01:43.466Z,17.37
2019-05-14T10:04:16.952Z,17.57
2019-05-14T10:06:53.641Z,17.59
2019-05-14T10:09:28.816Z,17.26
2019-05-14T10:12:04.982Z,17.32
2019-05-14T10:14:39.273Z,17.61
2019-05-14T10:17:12.250Z,17.87
2019-05-14T10:19:49.860Z,18.10
2019-05-14T10:22:29.776Z,17.66
2019-05-14T10:25:05.211Z,17.24
2019-05-14T10:27:39.852Z,17.71
2019-05-14T10:30:18.296Z,18.12
2019-05-14T10:32:52.993Z,18.21
2019-05-14T10:35:28.468Z,18.51
2019-05-14T10:38:02.620Z,18.45
2019-05-14T10:40:35.234Z,17.57
2019-05-14T10:43:09.122Z,16.97
2019-05-14T10:45:44.054Z,16.64
2019-05-14T10:48:19.258Z,16.72
2019-05-14T10:51:02.641Z,17.19
2019-05-14T10:53:51.257Z,17.49
2019-05-14T10:56:38.101Z,17.59
2019-05-14T10:59:59.319Z,17.87
2019-05-14T11:02:38.744Z,18.74
2019-05-14T11:05:21.097Z,19.36
2019-05-14T11:07:55.779Z,19.60
2019-05-14T11:10:29.854Z,19.67
2019-05-14T11:13:04.001Z,20.08
2019-05-14T11:15:41.206Z,20.19
2019-05-14T11:18:15.518Z,19.87
2019-05-14T11:21:17.455Z,19.62
2019-05-14T11:23:52.377Z,19.50
2019-05-14T11:26:29.449Z,19.56
2019-05-14T11:29:02.878Z,19.80
2019-05-14T11:31:39.155Z,19.43
2019-05-14T11:34:14.743Z,19.31
2019-05-14T11:36:49.887Z,19.25
2019-05-14T11:39:22.678Z,19.23
2019-05-14T11:41:59.025Z,19.61
2019-05-14T11:44:33.558Z,19.89
2019-05-14T11:47:09.092Z,19.72
2019-05-14T11:49:42.465Z,19.06
2019-05-14T11:52:17.939Z,18.84
2019-05-14T11:54:52.236Z,18.96
2019-05-14T11:57:25.149Z,19.00
2019-05-14T11:59:59.556Z,19.06
2019-05-14T12:02:38.468Z,19.17
2019-05-14T12:05:18.731Z,19.39
2019-05-14T12:07:52.430Z,19.08
2019-05-14T12:10:29.152Z,18.51
2019-05-14T12:13:02.824Z,18.23
2019-05-14T12:15:38.651Z,18.21
2019-05-14T12:18:13.984Z,18.58
2019-05-14T12:20:49.907Z,18.82
2019-05-14T12:23:23.339Z,19.12
2019-05-14T12:25:58.748Z,19.38
2019-05-14T12:28:32.718Z,19.71
2019-05-14T12:31:09.429Z,19.97
2019-05-14T12:33:43.087Z,20.09
2019-05-14T12:36:19.444Z,19.70
2019-05-14T12:38:59.148Z,19.54
2019-05-14T12:41:32.654Z,19.42
2019-05-14T12:44:09.364Z,19.44
2019-05-14T12:46:42.778Z,19.74
2019-05-14T12:49:18.747Z,19.62
2019-05-14T12:51:52.132Z,19.57
2019-05-14T12:54:29.458Z,19.31
2019-05-14T12:57:05.479Z,19.24
2019-05-14T12:59:42.214Z,19.18
2019-05-14T13:02:18.720Z,19.09
2019-05-14T13:04:53.303Z,18.96
2019-05-14T13:07:26.490Z,18.89
2019-05-14T13:10:05.917Z,18.73
2019-05-14T13:12:39.881Z,18.65
2019-05-14T13:15:15.935Z,18.96
2019-05-14T13:17:48.676Z,19.05
2019-05-14T13:20:23.991Z,19.05
2019-05-14T13:23:00.677Z,19.36
2019-05-14T13:25:39.173Z,19.70
2019-05-14T13:28:12.273Z,19.67
2019-05-14T13:30:45.097Z,19.69
2019-05-14T13:33:19.432Z,19.75
2019-05-14T13:35:55.741Z,19.64
2019-05-14T13:38:29.654Z,19.75
2019-05-14T13:41:02.361Z,20.39
2019-05-14T13:43:38.711Z,20.49
2019-05-14T13:46:15.221Z,20.44
2019-05-14T13:48:50.319Z,20.09
2019-05-14T13:51:23.909Z,20.17
2019-05-14T13:54:00.787Z,20.36
2019-05-14T13:56:38.849Z,20.67
2019-05-14T13:59:20.513Z,20.46
2019-05-14T14:01:59.195Z,20.69
2019-05-14T14:04:38.071Z,20.48
2019-05-14T14:07:19.695Z,20.12
2019-05-14T14:09:58.983Z,20.04
2019-05-14T14:12:33.062Z,20.28
2019-05-14T14:15:09.651Z,20.36
2019-05-14T14:17:45.658Z,20.51
2019-05-14T14:20:19.587Z,20.48
2019-05-14T14:22:52.259Z,20.06
2019-05-14T14:25:25.783Z,19.65
2019-05-14T14:28:01.849Z,19.37
2019-05-14T14:30:39.566Z,19.19
2019-05-14T14:33:12.414Z,19.35
2019-05-14T14:35:48.366Z,19.61
2019-05-14T14:38:25.282Z,19.65
2019-05-14T14:40:59.529Z,19.80
2019-05-14T14:43:33.624Z,19.79
2019-05-14T14:46:13.944Z,19.96
2019-05-14T14:48:51.302Z,20.16
2019-05-14T14:51:24.753Z,19.90
2019-05-14T14:54:10.841Z,19.69
2019-05-14T14:56:52.623Z,19.83
2019-05-14T14:59:30.364Z,20.19
2019-05-14T15:02:09.954Z,20.47
2019-05-14T15:04:52.473Z,20.66
2019-05-14T15:07:29.741Z,20.64
2019-05-14T15:10:08.475Z,20.41
2019-05-14T15:12:42.577Z,20.21
2019-05-14T15:15:18.668Z,20.33
2019-05-14T15:17:53.201Z,20.27
2019-05-14T15:20:28.977Z,20.23
2019-05-14T15:23:03.258Z,20.31
2019-05-14T15:25:36.483Z,20.39
2019-05-14T15:28:10.633Z,20.36
2019-05-14T15:30:45.682Z,20.42
2019-05-14T15:33:19.011Z,20.42
2019-05-14T15:35:51.667Z,19.98
2019-05-14T15:38:30.291Z,19.62
2019-05-14T15:41:05.208Z,19.62
2019-05-14T15:43:39.565Z,19.73
2019-05-14T15:46:14.439Z,19.78
2019-05-14T15:48:48.686Z,19.67
2019-05-14T15:51:23.322Z,19.78
2019-05-14T15:54:11.209Z,20.10
2019-05-14T15:56:58.649Z,20.36
2019-05-14T15:59:32.303Z,20.63
2019-05-14T16:02:09.110Z,20.78
2019-05-14T16:04:42.975Z,20.66
2019-05-14T16:07:18.424Z,20.14
2019-05-14T16:09:54.936Z,19.76
2019-05-14T16:12:34.852Z,19.56
2019-05-14T16:15:10.656Z,19.65
2019-05-14T16:17:53.700Z,19.54
2019-05-14T16:20:39.346Z,19.42
2019-05-14T16:23:13.870Z,19.36
2019-05-14T16:25:48.319Z,19.57
2019-05-14T16:28:22.038Z,19.62
2019-05-14T16:30:55.753Z,19.27
2019-05-14T16:33:29.675Z,18.96
2019-05-14T16:36:04.520Z,19.25
2019-05-14T16:38:39.747Z,19.24
2019-05-14T16:41:13.979Z,18.97
2019-05-14T16:43:50.985Z,19.04
2019-05-14T16:46:29.026Z,18.92
2019-05-14T16:49:03.729Z,18.68
2019-05-14T16:51:38.334Z,18.65
2019-05-14T16:54:13.175Z,18.70
2019-05-14T16:56:48.295Z,18.57
2019-05-14T16:59:24.748Z,18.44
2019-05-14T17:02:01.873Z,18.19
2019-05-14T17:04:48.407Z,17.76
2019-05-14T17:07:23.422Z,17.37
2019-05-14T17:09:58.974Z,17.18
2019-05-14T17:12:48.215Z,17.03
2019-05-14T17:15:28.613Z,16.88
2019-05-14T17:18:04.892Z,16.69
2019-05-14T17:20:40.473Z,16.59
2019-05-14T17:23:19.119Z,16.54
2019-05-14T17:25:57.845Z,16.46
2019-05-14T17:28:40.635Z,16.33
2019-05-14T17:31:15.269Z,16.15
2019-05-14T17:33:49.214Z,16.05
2019-05-14T17:36:28.222Z,15.82
2019-05-14T17:39:02.527Z,15.62
2019-05-14T17:41:35.837Z,15.45
2019-05-14T17:44:18.370Z,15.34
2019-05-14T17:46:59.550Z,15.33
2019-05-14T17:49:33.688Z,15.30
2019-05-14T17:52:09.629Z,15.27
2019-05-14T17:54:45.144Z,15.23
2019-05-14T17:57:24.481Z,15.21
2019-05-14T18:00:00.404Z,15.18
2019-05-14T18:02:37.193Z,15.18
2019-05-14T18:05:11.706Z,15.24
2019-05-14T18:07:48.375Z,15.29
2019-05-14T18:10:23.474Z,15.18
2019-05-14T18:12:59.769Z,15.05
2019-05-14T18:15:33.783Z,14.91
2019-05-14T18:18:08.882Z,14.77
2019-05-14T18:20:42.908Z,14.55
2019-05-14T18:23:18.194Z,14.43
2019-05-14T18:26:03.971Z,14.30
2019-05-14T18:28:47.735Z,14.23
2019-05-14T18:31:23.228Z,14.11
2019-05-14T18:33:58.766Z,14.02
2019-05-14T18:36:53.146Z,13.90
2019-05-14T18:39:29.368Z,13.85
2019-05-14T18:42:03.885Z,13.75
2019-05-14T18:44:39.124Z,13.63
2019-05-14T18:47:12.230Z,13.52
2019-05-14T18:49:48.627Z,13.47
2019-05-14T18:52:29.656Z,13.39
2019-05-14T18:55:03.488Z,13.30
2019-05-14T18:57:39.802Z,13.10
2019-05-14T19:00:18.573Z,12.94
2019-05-14T19:02:53.584Z,12.81
2019-05-14T19:05:29.179Z,12.68
2019-05-14T19:08:05.417Z,12.55
2019-05-14T19:10:42.907Z,12.39
2019-05-14T19:13:18.655Z,12.26
2019-05-14T19:15:55.131Z,12.13
2019-05-14T19:18:30.691Z,11.98
2019-05-14T19:21:08.633Z,11.85
2019-05-14T19:23:45.350Z,11.73
2019-05-14T19:26:36.157Z,11.63
2019-05-14T19:29:18.531Z,11.46
2019-05-14T19:31:54.976Z,11.37
2019-05-14T19:34:30.317Z,11.23
2019-05-14T19:37:08.358Z,11.12
2019-05-14T19:39:45.392Z,10.95
2019-05-14T19:42:19.940Z,10.84
2019-05-14T19:44:54.150Z,10.75
2019-05-14T19:47:29.311Z,10.65
2019-05-14T19:50:02.645Z,10.41
2019-05-14T19:52:39.046Z,10.20
2019-05-14T19:55:14.948Z,9.95
2019-05-14T19:57:48.964Z,9.68
2019-05-14T20:00:28.795Z,9.41
2019-05-14T20:03:02.637Z,9.22
2019-05-14T20:05:39.910Z,8.96
2019-05-14T20:08:14.675Z,8.68
2019-05-14T20:10:49.024Z,8.49
2019-05-14T20:13:24.483Z,8.42
2019-05-14T20:15:59.071Z,8.30
2019-05-14T20:18:33.709Z,8.20
2019-05-14T20:21:08.749Z,8.10
2019-05-14T20:23:48.157Z,8.03
2019-05-14T20:26:23.410Z,7.99
2019-05-14T20:28:59.088Z,8.08
2019-05-14T20:31:35.824Z,8.13
2019-05-14T20:34:10.627Z,8.05
2019-05-14T20:36:45.548Z,7.87
2019-05-14T20:39:20.217Z,7.84
2019-05-14T20:41:58.501Z,7.81
2019-05-14T20:44:33.984Z,7.73
2019-05-14T20:47:11.124Z,7.59
2019-05-14T20:49:45.930Z,7.42
2019-05-14T20:52:22.460Z,7.32
2019-05-14T20:55:03.533Z,7.15
2019-05-14T20:57:38.317Z,7.04
2019-05-14T21:00:33.109Z,6.85
2019-05-14T21:03:12.472Z,6.67
2019-05-14T21:05:58.339Z,6.57
2019-05-14T21:08:52.356Z,6.50
2019-05-14T21:11:29.110Z,6.42
2019-05-14T21:14:05.026Z,6.22
2019-05-14T21:16:48.942Z,6.08
2019-05-14T21:19:29.413Z,6.02
2019-05-14T21:22:03.323Z,5.96
2019-05-14T21:24:39.138Z,5.96
2019-05-14T21:27:15.446Z,5.82
2019-05-14T21:29:52.068Z,5.77
2019-05-14T21:32:31.348Z,5.65
2019-05-14T21:35:06.236Z,5.50
2019-05-14T21:37:42.266Z,5.45
2019-05-14T21:40:18.636Z,5.35
2019-05-14T21:42:56.123Z,5.31
2019-05-14T21:45:38.458Z,5.27
2019-05-14T21:48:19.673Z,5.26
2019-05-14T21:51:01.355Z,5.24
2019-05-14T21:53:38.694Z,5.18
2019-05-14T21:56:21.780Z,5.13
2019-05-14T21:59:15.337Z,5.12
2019-05-14T22:02:00.043Z,5.15
2019-05-14T22:04:42.535Z,5.11
2019-05-14T22:07:23.760Z,5.14
2019-05-14T22:10:01.008Z,5.03
2019-05-14T22:12:51.219Z,4.89
2019-05-14T22:15:40.042Z,4.81
2019-05-14T22:18:21.224Z,4.62
2019-05-14T22:20:57.968Z,4.63
2019-05-14T22:23:33.773Z,4.62
2019-05-14T22:26:08.689Z,4.53
2019-05-14T22:28:45.051Z,4.52
2019-05-14T22:31:20.020Z,4.44
2019-05-14T22:33:58.257Z,4.37
2019-05-14T22:36:34.177Z,4.30
2019-05-14T22:39:09.504Z,4.26
2019-05-14T22:41:43.502Z,4.24
2019-05-14T22:44:18.719Z,4.16
2019-05-14T22:46:52.924Z,4.15
2019-05-14T22:49:28.461Z,4.12
2019-05-14T22:52:03.265Z,4.02
2019-05-14T22:54:38.646Z,3.98
2019-05-14T22:57:13.059Z,3.97
2019-05-14T22:59:45.925Z,3.90
2019-05-14T23:02:19.437Z,3.85
2019-05-14T23:04:53.466Z,3.80
2019-05-14T23:07:29.863Z,3.82
2019-05-14T23:10:03.260Z,3.82
2019-05-14T23:12:38.531Z,3.73
2019-05-14T23:15:14.019Z,3.74
2019-05-14T23:17:52.311Z,3.69
2019-05-14T23:20:29.059Z,3.61
2019-05-14T23:23:09.299Z,3.56
2019-05-14T23:25:44.518Z,3.52
2019-05-14T23:28:19.262Z,3.47
2019-05-14T23:30:53.427Z,3.57
2019-05-14T23:33:28.856Z,3.55
2019-05-14T23:36:05.408Z,3.52
2019-05-14T23:38:38.950Z,3.52
2019-05-14T23:41:11.610Z,3.52
2019-05-14T23:43:44.193Z,3.50
2019-05-14T23:46:18.316Z,3.53
2019-05-14T23:48:50.929Z,3.51
2019-05-14T23:51:23.571Z,3.45
2019-05-14T23:53:57.511Z,3.39
2019-05-14T23:56:30.137Z,3.40
2019-05-14T23:59:03.086Z,3.35
